Saint-Philippe-De-Neri, Canada
Current Conditions -  °F | °C
As of 3:53 PM on Thursday 18 Dec 2014 (Local Time) from KFVE Reporting Station
Light Snow Light Snow  
Wind Chill:   Ceiling: 3600
Heat Index: 24°   Visibility: 5mi
Dew Point: 21°   Wind: 23mph
Humidity: 88%   Direction: 340°NNW
Pressure: 29.57"   Gusts: 31mph
Location:  47.45°N, 69.88°W
Report Text: KFVE 182053Z AUTO 34020G27KT 5SM -SN BR FEW012 BKN036 OVC090 M04/M06 A2957 RMK AO2 PK WND 33030/2030 SLP024 P0000 60000 T10441061 53006
Loading
Personal Weather Stations






























Interactive Weather Map New forecast layout! Learn more

10-Day Weather Forecast

Advertisements
Track Severe Weather on mobile